Time;durP1;ratioP1;P1;durP2;ratioP2;P2;SDS_P1;SDS_P2;PMS_P1;PMS_P2;Temp;Humidity;BMP_temperature;BMP_pressure;BME280_temperature;BME280_humidity;BME280_pressure;Samples;Min_cycle;Max_cycle;Signal;HPM_P1;HPM_P2
2021/12/22 00:00:17;;;;;;;42.92;22.92;;;;;;;-1.73;100.00;102510.31;5253148;28;20059;-69
2021/12/22 00:02:50;;;;;;;45.17;22.98;;;;;;;-1.66;100.00;102506.00;5254395;28;20037;-69
2021/12/22 00:05:27;;;;;;;39.50;22.45;;;;;;;-1.62;100.00;102507.69;5252541;28;20118;-69
2021/12/22 00:07:59;;;;;;;46.05;24.02;;;;;;;-1.72;100.00;102518.00;5253170;28;20024;-69
2021/12/22 00:10:30;;;;;;;47.22;23.92;;;;;;;-1.74;100.00;102517.19;5253545;28;20033;-69
2021/12/22 00:13:01;;;;;;;45.40;24.38;;;;;;;-1.75;100.00;102523.16;5253397;28;20033;-69
2021/12/22 00:15:33;;;;;;;46.15;23.40;;;;;;;-1.78;100.00;102515.50;5253860;28;20037;-69
2021/12/22 00:18:04;;;;;;;48.97;22.30;;;;;;;-1.69;100.00;102513.72;5253615;28;20031;-69
2021/12/22 00:20:36;;;;;;;45.05;23.13;;;;;;;-1.71;100.00;102509.41;5254210;28;20029;-69
2021/12/22 00:23:07;;;;;;;41.55;22.40;;;;;;;-1.77;100.00;102511.22;5252163;28;20033;-69
2021/12/22 00:25:38;;;;;;;45.15;23.77;;;;;;;-1.69;100.00;102514.56;5254420;28;20028;-69
2021/12/22 00:28:10;;;;;;;41.72;23.17;;;;;;;-1.77;100.00;102518.91;5254102;28;20028;-69
2021/12/22 00:30:42;;;;;;;45.90;22.73;;;;;;;-1.79;100.00;102518.06;5247760;28;20572;-69
2021/12/22 00:33:14;;;;;;;48.30;23.75;;;;;;;-1.76;100.00;102513.75;5254061;28;20456;-69
2021/12/22 00:35:45;;;;;;;46.78;23.73;;;;;;;-1.82;100.00;102508.69;5253918;28;20029;-69
2021/12/22 00:38:21;;;;;;;43.72;21.98;;;;;;;-1.73;100.00;102508.59;5253825;28;20067;-69
2021/12/22 00:40:55;;;;;;;44.10;22.98;;;;;;;-1.77;100.00;102513.78;5253280;28;20029;-69
2021/12/22 00:43:26;;;;;;;42.78;22.65;;;;;;;-1.83;100.00;102514.66;5253795;28;20099;-69
2021/12/22 00:45:58;;;;;;;46.03;24.10;;;;;;;-1.83;100.00;102517.22;5254334;28;20027;-69
2021/12/22 00:48:29;;;;;;;47.33;23.98;;;;;;;-1.81;100.00;102524.94;5252460;28;20079;-69
2021/12/22 00:51:01;;;;;;;42.08;21.80;;;;;;;-1.83;100.00;102517.22;5253512;28;20028;-69
2021/12/22 00:53:32;;;;;;;45.55;23.05;;;;;;;-1.86;100.00;102509.53;5252509;28;20041;-69
2021/12/22 00:56:04;;;;;;;42.97;22.95;;;;;;;-1.90;100.00;102501.84;5253250;28;20029;-69
2021/12/22 00:58:35;;;;;;;46.85;23.95;;;;;;;-1.95;100.00;102507.03;5253977;28;20032;-69
2021/12/22 01:01:07;;;;;;;50.75;25.58;;;;;;;-1.94;100.00;102507.88;5252646;28;20039;-69
2021/12/22 01:03:38;;;;;;;45.25;23.52;;;;;;;-2.02;100.00;102510.50;5252936;28;20025;-69
2021/12/22 01:06:10;;;;;;;48.33;25.48;;;;;;;-2.07;100.00;102499.41;5253028;28;20091;-68
2021/12/22 01:08:41;;;;;;;45.58;23.33;;;;;;;-1.97;100.00;102521.59;5254049;28;20024;-69
2021/12/22 01:11:12;;;;;;;47.00;24.05;;;;;;;-1.98;100.00;102522.44;5252687;28;20029;-69
2021/12/22 01:13:44;;;;;;;43.00;22.90;;;;;;;-2.02;100.00;102511.34;5253822;28;20211;-69
2021/12/22 01:16:15;;;;;;;42.85;23.50;;;;;;;-2.04;100.00;102514.81;5252837;28;20028;-69
2021/12/22 01:18:47;;;;;;;45.80;23.65;;;;;;;-2.14;100.00;102498.56;5252456;28;20025;-69
2021/12/22 01:21:36;;;;;;;41.63;22.15;;;;;;;-2.10;100.00;102504.56;5253291;28;20047;-69
2021/12/22 01:24:15;;;;;;;47.80;25.38;;;;;;;-2.13;100.00;102497.72;5253134;28;20017;-69
2021/12/22 01:26:52;;;;;;;44.10;22.70;;;;;;;-2.07;100.00;102505.38;5252058;28;20037;-69
2021/12/22 01:29:23;;;;;;;48.10;22.80;;;;;;;-2.11;100.00;102490.88;5253475;28;20367;-69
2021/12/22 01:31:57;;;;;;;40.78;22.70;;;;;;;-2.11;100.00;102496.00;5254455;28;20025;-69
2021/12/22 01:34:29;;;;;;;43.05;22.40;;;;;;;-2.13;100.00;102492.56;5251550;28;20059;-69
2021/12/22 01:37:00;;;;;;;47.40;23.48;;;;;;;-2.14;100.00;102497.72;5251670;28;20116;-69
2021/12/22 01:39:32;;;;;;;38.60;20.75;;;;;;;-2.14;100.00;102496.00;5252915;28;20041;-69
2021/12/22 01:42:03;;;;;;;45.67;22.88;;;;;;;-2.16;100.00;102502.00;5256037;28;20029;-69
2021/12/22 01:50:40;;;;;;;46.80;22.75;;;;;;;-2.15;100.00;102485.75;5257492;28;20108;-69
2021/12/22 01:53:20;;;;;;;40.53;21.27;;;;;;;-2.13;100.00;102484.88;5256027;28;20037;-69
2021/12/22 01:56:04;;;;;;;46.53;23.33;;;;;;;-2.21;100.00;102484.06;5257564;28;20033;-69
2021/12/22 01:58:36;;;;;;;;;;;;;;;-1.83;100.00;102488.97;5255980;28;20021;-69
2021/12/22 02:01:08;;;;;;;40.45;20.67;;;;;;;-2.21;100.00;102489.19;5256799;28;20331;-69
2021/12/22 02:03:41;;;;;;;36.95;21.13;;;;;;;-2.32;100.00;102478.97;5256532;28;20040;-69
2021/12/22 02:06:13;;;;;;;41.00;20.67;;;;;;;-2.25;100.00;102484.94;5256266;28;20033;-69
2021/12/22 02:08:45;;;;;;;45.40;22.40;;;;;;;-2.21;100.00;102494.34;5256557;28;20399;-69
2021/12/22 02:11:18;;;;;;;40.03;20.75;;;;;;;-2.18;100.00;102498.59;5249774;28;20498;-69
2021/12/22 02:13:56;;;;;;;39.63;21.90;;;;;;;-2.15;100.00;102511.44;5256586;28;20108;-69
2021/12/22 02:16:32;;;;;;;39.03;21.08;;;;;;;-2.25;100.00;102503.75;5256705;28;20514;-69
2021/12/22 02:19:07;;;;;;;37.42;21.05;;;;;;;-2.22;100.00;102516.59;5254789;28;20029;-69
2021/12/22 02:21:44;;;;;;;37.10;19.08;;;;;;;-2.24;100.00;102512.31;5256466;28;20033;-69
2021/12/22 02:24:16;;;;;;;39.22;19.67;;;;;;;-2.22;100.00;102508.03;5256489;28;20032;-69
2021/12/22 02:26:53;;;;;;;40.88;20.27;;;;;;;-2.22;100.00;102506.31;5256588;28;20544;-69
2021/12/22 02:29:34;;;;;;;38.33;20.27;;;;;;;-2.25;100.00;102500.34;5255741;28;20032;-69
2021/12/22 02:32:31;;;;;;;34.10;19.75;;;;;;;-2.25;100.00;102514.03;5256596;28;20024;-69
2021/12/22 02:35:05;;;;;;;42.45;19.65;;;;;;;-2.28;100.00;102514.03;5254817;28;20104;-69
2021/12/22 02:37:43;;;;;;;39.45;21.27;;;;;;;-2.27;100.00;102509.78;5255304;28;20037;-69
2021/12/22 02:40:18;;;;;;;37.72;18.98;;;;;;;-2.40;100.00;102508.13;5255459;28;20474;-69
2021/12/22 02:42:53;;;;;;;36.80;19.42;;;;;;;-2.33;100.00;102509.81;5256802;28;20033;-69
2021/12/22 02:45:24;;;;;;;39.38;20.40;;;;;;;-2.41;100.00;102514.97;5254119;28;20021;-69
2021/12/22 02:47:55;;;;;;;39.30;19.88;;;;;;;-2.31;100.00;102508.06;5255557;28;20442;-69
2021/12/22 02:50:27;;;;;;;34.05;18.58;;;;;;;-2.37;100.00;102508.13;5255564;28;20025;-69
2021/12/22 02:53:06;;;;;;;36.70;18.45;;;;;;;-2.41;100.00;102498.72;5256280;28;20098;-69
2021/12/22 02:55:57;;;;;;;36.80;18.70;;;;;;;-2.47;100.00;102495.31;5255274;28;20168;-69
2021/12/22 02:58:43;;;;;;;37.28;18.65;;;;;;;-2.40;100.00;102496.13;5255743;28;20503;-69
2021/12/22 03:04:05;;;;;;;33.33;18.85;;;;;;;-2.44;100.00;102489.31;5255405;28;20032;-69
2021/12/22 03:09:28;;;;;;;32.28;18.35;;;;;;;-2.31;100.00;102506.38;5256148;28;20124;-69
2021/12/22 03:12:03;;;;;;;33.65;17.52;;;;;;;-2.34;100.00;102508.97;5255021;28;20025;-69
2021/12/22 03:14:34;;;;;;;32.42;18.38;;;;;;;-2.35;100.00;102509.81;5253932;28;20040;-69
2021/12/22 03:17:06;;;;;;;37.70;18.00;;;;;;;-2.42;100.00;102518.41;5255515;28;20017;-69
2021/12/22 03:19:37;;;;;;;29.50;17.98;;;;;;;-2.39;100.00;102510.66;5255870;28;20065;-69
2021/12/22 03:22:11;;;;;;;35.80;18.58;;;;;;;-2.38;100.00;102520.09;5253284;28;20033;-69
2021/12/22 03:24:44;;;;;;;;;;;;;;;-1.90;100.00;102522.41;5256222;28;20056;-69
2021/12/22 03:27:16;;;;;;;31.52;16.45;;;;;;;-2.39;100.00;102530.34;5255309;28;19916;-69
2021/12/22 03:29:48;;;;;;;35.70;18.73;;;;;;;-2.47;100.00;102527.81;5255798;28;20047;-69
2021/12/22 03:32:19;;;;;;;29.88;16.25;;;;;;;-2.54;100.00;102521.00;5254213;28;20068;-69
2021/12/22 03:34:50;;;;;;;31.20;17.17;;;;;;;-2.54;100.00;102523.56;5254453;28;20207;-69
2021/12/22 03:37:22;;;;;;;32.92;17.27;;;;;;;-2.57;100.00;102531.28;5254805;28;20549;-69
2021/12/22 03:39:53;;;;;;;33.97;16.80;;;;;;;-2.59;100.00;102531.28;5253515;28;20064;-69
2021/12/22 03:42:24;;;;;;;32.25;17.67;;;;;;;-2.56;100.00;102525.28;5253687;28;20039;-69
2021/12/22 03:44:56;;;;;;;32.15;16.70;;;;;;;-2.64;100.00;102527.88;5255699;28;20029;-69
2021/12/22 03:47:27;;;;;;;35.50;17.60;;;;;;;-2.66;100.00;102521.03;5254428;28;20020;-69
2021/12/22 03:49:58;;;;;;;36.33;18.42;;;;;;;-2.65;100.00;102517.59;5254877;28;20056;-69
2021/12/22 03:52:30;;;;;;;30.50;16.38;;;;;;;-2.66;100.00;102506.50;5255241;28;20029;-69
2021/12/22 03:55:01;;;;;;;29.35;17.58;;;;;;;-2.70;100.00;102505.66;5254777;28;20045;-69
2021/12/22 03:57:32;;;;;;;28.23;15.73;;;;;;;-2.71;100.00;102509.09;5254342;28;20032;-69
2021/12/22 04:00:07;;;;;;;32.67;17.30;;;;;;;-2.63;100.00;102511.63;5254863;28;20425;-69
2021/12/22 04:02:38;;;;;;;30.23;17.27;;;;;;;-2.70;100.00;102515.06;5254422;28;20125;-69
2021/12/22 04:05:10;;;;;;;30.73;18.20;;;;;;;-2.70;100.00;102517.63;5254133;28;20063;-69
2021/12/22 04:07:41;;;;;;;29.23;16.90;;;;;;;-2.73;100.00;102515.94;5253482;28;20032;-69
2021/12/22 04:10:21;;;;;;;29.33;16.50;;;;;;;-2.65;100.00;102515.03;5254801;28;20498;-69
2021/12/22 04:12:56;;;;;;;32.65;17.00;;;;;;;-2.67;100.00;102503.94;5254167;28;20369;-69
2021/12/22 04:15:27;;;;;;;32.53;17.33;;;;;;;-2.73;100.00;102504.81;5240724;28;20078;-69
2021/12/22 04:17:58;;;;;;;35.78;18.42;;;;;;;-2.76;100.00;102508.25;5253887;28;20040;-69
2021/12/22 04:20:30;;;;;;;34.25;17.13;;;;;;;-2.75;100.00;102509.09;5250021;28;20450;-69
2021/12/22 04:23:03;;;;;;;33.10;17.13;;;;;;;-2.67;100.00;102509.06;5253785;28;20482;-69
2021/12/22 04:25:35;;;;;;;31.67;16.73;;;;;;;-2.59;100.00;102497.06;5253833;28;20505;-69
2021/12/22 04:28:10;;;;;;;32.80;18.15;;;;;;;-2.65;100.00;102492.84;5254095;28;20629;-69
2021/12/22 04:30:45;;;;;;;35.90;17.15;;;;;;;-2.72;100.00;102486.88;5248128;28;20060;-69
2021/12/22 04:33:19;;;;;;;27.60;16.55;;;;;;;-2.72;100.00;102488.56;5253438;28;20107;-69
2021/12/22 04:35:52;;;;;;;30.00;17.83;;;;;;;-2.73;100.00;102480.03;5252897;28;20025;-69
2021/12/22 04:38:24;;;;;;;29.27;15.38;;;;;;;-2.67;100.00;102481.72;5253237;28;20029;-69
2021/12/22 04:40:56;;;;;;;29.08;16.70;;;;;;;-2.71;100.00;102480.00;5253511;28;20056;-69
2021/12/22 04:43:28;;;;;;;34.17;17.40;;;;;;;-2.73;100.00;102481.72;5247756;28;20539;-69
2021/12/22 04:45:59;;;;;;;30.55;17.38;;;;;;;-2.71;100.00;102478.28;5254134;28;20382;-69
2021/12/22 04:48:32;;;;;;;27.80;16.05;;;;;;;-2.64;100.00;102489.41;5247707;28;20167;-69
2021/12/22 04:51:12;;;;;;;35.00;16.70;;;;;;;-2.59;100.00;102479.97;5253513;28;20084;-69
2021/12/22 04:54:02;;;;;;;29.60;15.00;;;;;;;-2.53;100.00;102479.09;5254024;28;20490;-69
2021/12/22 04:56:34;;;;;;;33.08;15.70;;;;;;;-2.52;100.00;102485.94;5252478;28;20509;-69
2021/12/22 04:59:05;;;;;;;26.02;14.68;;;;;;;-2.51;100.00;102485.06;5252880;28;20048;-71
2021/12/22 05:01:37;;;;;;;25.45;14.68;;;;;;;-2.56;100.00;102479.09;5253159;28;20033;-69
2021/12/22 05:04:08;;;;;;;27.17;15.75;;;;;;;-2.55;100.00;102480.81;5253078;28;20025;-69
2021/12/22 05:06:39;;;;;;;28.45;15.02;;;;;;;-2.46;100.00;102467.94;5252176;28;20091;-68
2021/12/22 05:09:10;;;;;;;30.38;16.25;;;;;;;-2.40;100.00;102467.91;5254052;28;20470;-69
2021/12/22 05:11:42;;;;;;;28.15;15.63;;;;;;;-2.41;100.00;102471.34;5247582;28;20040;-68
2021/12/22 05:14:13;;;;;;;28.60;14.68;;;;;;;-2.37;100.00;102461.91;5252758;28;20556;-69
2021/12/22 05:16:46;;;;;;;26.48;14.73;;;;;;;-2.41;100.00;102460.22;5255866;28;20372;-69
2021/12/22 05:19:17;;;;;;;25.10;13.73;;;;;;;-2.37;100.00;102460.19;5258182;28;20023;-69
2021/12/22 05:21:48;;;;;;;25.08;13.45;;;;;;;-2.35;100.00;102455.91;5257068;28;20500;-68
2021/12/22 05:24:20;;;;;;;20.48;12.13;;;;;;;-2.36;100.00;102456.75;5257350;28;20429;-69
2021/12/22 05:26:51;;;;;;;23.50;13.82;;;;;;;-2.35;100.00;102461.06;5257745;28;20489;-69
2021/12/22 05:29:23;;;;;;;23.35;12.60;;;;;;;-2.31;100.00;102465.31;5256676;28;20059;-68
2021/12/22 05:31:56;;;;;;;25.83;12.98;;;;;;;-2.34;100.00;102470.44;5256431;28;20036;-68
2021/12/22 05:34:27;;;;;;;25.13;12.75;;;;;;;-2.29;100.00;102475.56;5257484;28;20128;-69
2021/12/22 05:36:59;;;;;;;19.15;12.40;;;;;;;-2.28;100.00;102466.97;5256264;28;20814;-69
2021/12/22 05:39:31;;;;;;;20.63;12.02;;;;;;;-2.27;100.00;102464.44;5257161;28;20524;-69
2021/12/22 05:42:02;;;;;;;22.60;13.00;;;;;;;-2.26;100.00;102460.13;5256939;28;20021;-70
2021/12/22 05:44:33;;;;;;;22.92;14.10;;;;;;;-2.28;100.00;102452.44;5257633;28;20021;-68
2021/12/22 05:47:05;;;;;;;24.67;12.75;;;;;;;-2.30;100.00;102443.91;5256439;28;20104;-69
2021/12/22 05:49:36;;;;;;;28.50;12.80;;;;;;;-2.33;100.00;102437.94;5251883;28;20032;-68
2021/12/22 05:52:07;;;;;;;24.90;12.77;;;;;;;-2.25;100.00;102452.41;5256939;28;20500;-68
2021/12/22 05:54:39;;;;;;;20.23;12.00;;;;;;;-2.23;100.00;102447.28;5256088;28;20040;-69
2021/12/22 05:57:10;;;;;;;21.40;11.63;;;;;;;-2.28;100.00;102441.31;5256969;28;20033;-69
2021/12/22 05:59:41;;;;;;;19.80;12.05;;;;;;;-2.29;100.00;102449.88;5257249;28;20237;-69
2021/12/22 06:02:13;;;;;;;20.25;10.63;;;;;;;-2.26;100.00;102435.31;5251091;28;20079;-68
2021/12/22 06:04:44;;;;;;;20.65;11.20;;;;;;;-2.29;100.00;102443.03;5256511;28;20075;-71
2021/12/22 06:07:15;;;;;;;19.73;11.02;;;;;;;-2.27;100.00;102438.75;5257044;28;20056;-69
2021/12/22 06:09:47;;;;;;;22.17;12.60;;;;;;;-2.24;100.00;102448.13;5256763;28;20029;-68
2021/12/22 06:12:18;;;;;;;20.88;10.80;;;;;;;-2.29;100.00;102444.75;5255595;28;20043;-71
2021/12/22 06:14:50;;;;;;;19.27;11.50;;;;;;;-2.28;100.00;102455.00;5256639;28;20057;-71
2021/12/22 06:17:21;;;;;;;19.92;10.98;;;;;;;-2.26;100.00;102453.28;5256066;28;20383;-71
2021/12/22 06:19:53;;;;;;;17.02;11.57;;;;;;;-2.33;100.00;102443.06;5255695;28;20025;-71
2021/12/22 06:22:26;;;;;;;19.17;11.07;;;;;;;-2.29;100.00;102455.88;5255011;28;20060;-71
2021/12/22 06:24:58;;;;;;;22.95;11.90;;;;;;;-2.29;100.00;102458.44;5256138;28;20060;-70
2021/12/22 06:27:29;;;;;;;20.75;11.63;;;;;;;-2.30;100.00;102454.16;5255549;28;20035;-71
2021/12/22 06:30:04;;;;;;;19.02;10.45;;;;;;;-2.28;100.00;102444.72;5256157;28;20386;-70
2021/12/22 06:32:36;;;;;;;17.42;10.70;;;;;;;-2.38;100.00;102449.94;5255819;28;20119;-71
2021/12/22 06:35:08;;;;;;;21.23;10.82;;;;;;;-2.46;100.00;102442.28;5256399;28;20855;-71
2021/12/22 06:37:39;;;;;;;18.10;11.20;;;;;;;-2.41;100.00;102449.97;5255108;28;20021;-71
2021/12/22 06:40:12;;;;;;;20.23;11.18;;;;;;;-2.45;100.00;102455.09;5255780;28;20115;-71
2021/12/22 06:42:43;;;;;;;16.85;10.45;;;;;;;-2.35;100.00;102453.34;5256252;28;20048;-70
2021/12/22 06:45:15;;;;;;;17.02;11.30;;;;;;;-2.34;100.00;102457.63;5256362;28;20106;-70
2021/12/22 06:47:46;;;;;;;16.60;10.43;;;;;;;-2.45;100.00;102454.25;5255626;28;20036;-71
2021/12/22 06:50:17;;;;;;;18.80;10.57;;;;;;;-2.45;100.00;102449.97;5255136;28;20029;-70
2021/12/22 06:52:48;;;;;;;18.15;11.00;;;;;;;-2.47;100.00;102459.38;5255739;28;20043;-71
2021/12/22 06:55:20;;;;;;;21.88;11.60;;;;;;;-2.52;100.00;102457.69;5254278;28;20033;-70
2021/12/22 06:57:51;;;;;;;23.92;11.65;;;;;;;-2.59;100.00;102461.16;5255988;28;20114;-71
2021/12/22 07:00:23;;;;;;;19.85;11.73;;;;;;;-2.63;100.00;102462.88;5254831;28;20600;-70
2021/12/22 07:02:56;;;;;;;25.15;11.07;;;;;;;-2.61;100.00;102468.03;5254508;28;20029;-70
2021/12/22 07:05:27;;;;;;;;;;;;;;;-2.15;100.00;102468.63;5255986;28;20421;-71
2021/12/22 07:07:59;;;;;;;19.50;10.00;;;;;;;-2.63;100.00;102468.00;5255565;28;19920;-71
2021/12/22 07:10:30;;;;;;;17.63;9.93;;;;;;;-2.69;100.00;102462.88;5253645;28;20807;-70
2021/12/22 07:13:02;;;;;;;21.05;10.07;;;;;;;-2.75;100.00;102461.22;5250095;28;20033;-70
2021/12/22 07:15:33;;;;;;;17.63;10.38;;;;;;;-2.75;100.00;102460.38;5256302;28;20060;-70
2021/12/22 07:18:08;;;;;;;18.67;10.57;;;;;;;-2.76;100.00;102462.09;5253935;28;20056;-70
2021/12/22 07:20:40;;;;;;;16.48;10.02;;;;;;;-2.74;100.00;102462.91;5254318;28;20064;-70
2021/12/22 07:23:11;;;;;;;18.38;10.95;;;;;;;-2.79;100.00;102448.41;5254440;28;20111;-70
2021/12/22 07:25:43;;;;;;;22.73;11.30;;;;;;;-2.77;100.00;102442.41;5251119;28;20017;-70
2021/12/22 07:28:14;;;;;;;21.42;11.38;;;;;;;-2.68;100.00;102459.50;5253645;28;20082;-70
2021/12/22 07:30:46;;;;;;;19.90;12.10;;;;;;;-2.71;100.00;102459.50;5255194;28;20060;-70
2021/12/22 07:33:18;;;;;;;19.88;12.70;;;;;;;-2.66;100.00;102456.91;5255861;28;20025;-70
2021/12/22 07:36:00;;;;;;;19.47;11.60;;;;;;;-2.56;100.00;102461.16;5255022;28;20033;-70
2021/12/22 07:38:46;;;;;;;18.92;11.43;;;;;;;-2.59;100.00;102466.28;5252625;28;20032;-70
2021/12/22 07:41:18;;;;;;;21.10;11.18;;;;;;;-2.61;100.00;102456.03;5254361;28;20464;-71
2021/12/22 07:43:49;;;;;;;20.40;10.82;;;;;;;-2.62;100.00;102446.63;5253984;28;20020;-70
2021/12/22 07:46:20;;;;;;;21.65;10.48;;;;;;;-2.59;100.00;102450.88;5251468;28;20463;-70
2021/12/22 07:48:52;;;;;;;17.40;10.10;;;;;;;-2.54;100.00;102444.00;5246118;28;20094;-70
2021/12/22 07:51:24;;;;;;;16.05;9.27;;;;;;;-2.57;100.00;102450.03;5249532;28;20064;-70
2021/12/22 07:53:55;;;;;;;18.30;10.32;;;;;;;-2.51;100.00;102454.28;5251182;28;20107;-70
2021/12/22 07:56:26;;;;;;;15.95;9.45;;;;;;;-2.47;100.00;102451.69;5250313;28;20033;-70
2021/12/22 07:58:58;;;;;;;16.77;9.05;;;;;;;-2.49;100.00;102442.28;5248057;28;20116;-70
2021/12/22 08:01:32;;;;;;;17.20;10.15;;;;;;;-2.43;100.00;102449.94;5252531;28;20386;-71
2021/12/22 08:04:03;;;;;;;18.90;10.05;;;;;;;-2.38;100.00;102448.22;5253638;28;20045;-70
2021/12/22 08:06:35;;;;;;;16.35;9.43;;;;;;;-2.36;100.00;102445.66;5253842;28;20105;-71
2021/12/22 08:09:06;;;;;;;15.52;9.18;;;;;;;-2.38;100.00;102449.94;5254543;28;20039;-70
2021/12/22 08:11:37;;;;;;;15.68;9.32;;;;;;;-2.34;100.00;102452.47;5252470;28;20024;-70
2021/12/22 08:14:09;;;;;;;18.00;10.23;;;;;;;-2.32;100.00;102452.47;5253085;28;20039;-70
2021/12/22 08:16:40;;;;;;;18.95;10.32;;;;;;;-2.30;100.00;102448.19;5252881;28;20078;-70
2021/12/22 08:19:11;;;;;;;16.27;10.25;;;;;;;-2.28;100.00;102447.28;5253970;28;20464;-70
2021/12/22 08:21:44;;;;;;;15.50;9.10;;;;;;;-2.24;100.00;102446.41;5252871;28;20029;-70
2021/12/22 08:24:15;;;;;;;19.83;10.38;;;;;;;-2.23;100.00;102445.56;5253230;28;20021;-70
2021/12/22 08:26:47;;;;;;;18.65;10.45;;;;;;;-2.20;100.00;102444.69;5253634;28;20043;-70
2021/12/22 08:29:19;;;;;;;15.52;9.77;;;;;;;-2.15;100.00;102444.69;5252868;28;20037;-71
2021/12/22 08:31:50;;;;;;;15.75;9.45;;;;;;;-2.16;100.00;102445.53;5252692;28;20028;-70
2021/12/22 08:34:27;;;;;;;14.45;9.32;;;;;;;-2.11;100.00;102446.38;5253863;28;20033;-70
2021/12/22 08:39:48;;;;;;;16.83;10.43;;;;;;;-2.02;100.00;102448.84;5251621;28;20448;-70
2021/12/22 08:42:20;;;;;;;15.70;9.45;;;;;;;-2.02;100.00;102438.59;5252436;28;20025;-71
2021/12/22 08:44:52;;;;;;;14.73;8.95;;;;;;;-1.93;100.00;102447.94;5252884;28;20407;-70
2021/12/22 08:47:24;;;;;;;17.08;9.43;;;;;;;-1.89;100.00;102441.94;5248195;28;20032;-70
2021/12/22 08:49:55;;;;;;;16.55;9.85;;;;;;;-1.85;100.00;102446.19;5250427;28;20390;-68
2021/12/22 08:52:26;;;;;;;18.52;9.95;;;;;;;-1.84;100.00;102443.59;5253466;28;20032;-68
2021/12/22 08:54:57;;;;;;;18.08;9.80;;;;;;;-1.84;100.00;102432.47;5250916;28;20047;-68
2021/12/22 08:57:29;;;;;;;18.92;10.20;;;;;;;-1.75;100.00;102445.22;5251786;28;20035;-68
2021/12/22 09:00:04;;;;;;;19.50;10.48;;;;;;;-1.71;100.00;102450.31;5253195;28;20049;-72
2021/12/22 09:02:37;;;;;;;16.55;9.43;;;;;;;-1.67;100.00;102445.16;5252844;28;20502;-70
2021/12/22 09:05:09;;;;;;;20.08;9.38;;;;;;;-1.67;100.00;102440.88;5252478;28;20025;-70
2021/12/22 09:07:40;;;;;;;15.15;9.85;;;;;;;-1.64;100.00;102440.00;5253353;28;20036;-70
2021/12/22 09:10:11;;;;;;;21.75;9.90;;;;;;;-1.61;100.00;102440.84;5252257;28;20516;-70
2021/12/22 09:12:43;;;;;;;18.13;10.13;;;;;;;-1.57;100.00;102451.94;5251705;28;20056;-69
2021/12/22 09:15:17;;;;;;;20.85;10.32;;;;;;;-1.55;100.00;102450.22;5250851;28;20457;-70
2021/12/22 09:17:48;;;;;;;17.55;9.77;;;;;;;-1.55;100.00;102438.22;5251917;28;20358;-70
2021/12/22 09:20:19;;;;;;;18.23;10.80;;;;;;;-1.47;100.00;102433.88;5252247;28;20041;-69
2021/12/22 09:22:51;;;;;;;15.30;9.43;;;;;;;-1.48;100.00;102434.75;5250409;28;20482;-70
2021/12/22 09:25:22;;;;;;;22.48;10.55;;;;;;;-1.38;100.00;102440.63;5251588;28;20029;-70
2021/12/22 09:27:54;;;;;;;18.67;10.23;;;;;;;-1.36;100.00;102435.50;5250303;28;20032;-69
2021/12/22 09:30:25;;;;;;;16.42;10.15;;;;;;;-1.31;100.00;102439.72;5252360;28;20464;-70
2021/12/22 09:32:56;;;;;;;17.35;10.07;;;;;;;-1.29;100.00;102438.00;5251454;28;20032;-70
2021/12/22 09:35:28;;;;;;;18.70;10.40;;;;;;;-1.23;100.00;102437.91;5251699;28;20033;-69
2021/12/22 09:37:59;;;;;;;16.40;10.25;;;;;;;-1.15;100.00;102435.25;5252985;28;20081;-69
2021/12/22 09:40:31;;;;;;;19.88;11.55;;;;;;;-1.11;100.00;102426.63;5252672;28;20029;-70
2021/12/22 09:43:04;;;;;;;19.77;10.50;;;;;;;-1.05;100.00;102429.16;5251470;28;20040;-70
2021/12/22 09:45:41;;;;;;;14.63;9.45;;;;;;;-0.99;100.00;102425.66;5244986;28;20025;-70
2021/12/22 09:50:54;;;;;;;16.90;10.55;;;;;;;-0.89;100.00;102422.09;5248552;28;20037;-69
2021/12/22 09:53:28;;;;;;;17.40;10.50;;;;;;;-0.81;100.00;102420.28;5245374;28;20049;-70
2021/12/22 09:56:00;;;;;;;19.75;9.75;;;;;;;-0.79;100.00;102425.44;5250924;28;20037;-69
2021/12/22 09:58:32;;;;;;;18.15;10.70;;;;;;;-0.68;100.00;102436.44;5251441;28;20498;-70
2021/12/22 10:01:03;;;;;;;19.65;10.27;;;;;;;-0.63;100.00;102438.97;5251910;28;20140;-70
2021/12/22 10:03:35;;;;;;;18.48;10.45;;;;;;;-0.55;100.00;102434.56;5254161;28;20044;-70
2021/12/22 10:06:06;;;;;;;15.15;10.05;;;;;;;-0.53;100.00;102436.25;5254750;28;20033;-70
2021/12/22 10:08:50;;;;;;;18.23;10.50;;;;;;;-0.31;100.00;102428.22;5254913;28;20071;-70
2021/12/22 10:11:22;;;;;;;18.67;10.65;;;;;;;-0.52;100.00;102401.06;5254233;28;20037;-71
2021/12/22 10:13:53;;;;;;;17.25;9.05;;;;;;;-0.36;100.00;102419.72;5249335;28;20033;-70
2021/12/22 10:16:26;;;;;;;16.13;9.30;;;;;;;-0.26;100.00;102421.31;5255357;28;20111;-70
2021/12/22 10:19:10;;;;;;;18.10;10.57;;;;;;;-0.10;100.00;102420.19;5255776;28;20028;-69
2021/12/22 10:22:02;;;;;;;17.25;10.13;;;;;;;-0.01;100.00;102414.88;5248080;28;20347;-70
2021/12/22 10:24:42;;;;;;;17.23;8.50;;;;;;;-0.14;100.00;102408.25;5252862;28;20377;-70
2021/12/22 10:27:22;;;;;;;14.73;8.88;;;;;;;-0.03;100.00;102408.06;5253024;28;20036;-70
2021/12/22 10:29:54;;;;;;;12.98;8.52;;;;;;;-0.12;100.00;102409.03;5253124;28;20040;-70
2021/12/22 10:32:25;;;;;;;15.77;9.00;;;;;;;-0.04;100.00;102414.06;5253578;28;20029;-69
2021/12/22 10:34:58;;;;;;;17.48;9.82;;;;;;;-0.01;100.00;102408.88;5253817;28;20044;-70
2021/12/22 10:37:35;;;;;;;13.52;9.20;;;;;;;0.08;100.00;102406.19;5253850;28;20025;-70
2021/12/22 10:40:34;;;;;;;15.18;9.18;;;;;;;0.31;100.00;102402.38;5253275;28;20025;-70
2021/12/22 10:43:09;;;;;;;16.85;8.68;;;;;;;0.21;100.00;102399.94;5247928;28;20056;-70
2021/12/22 10:45:40;;;;;;;13.60;9.60;;;;;;;0.28;100.00;102392.13;5246885;28;20067;-70
2021/12/22 10:51:02;;;;;;;13.45;8.93;;;;;;;0.41;100.00;102391.84;5253717;28;20139;-70
2021/12/22 10:53:41;;;;;;;14.75;9.82;;;;;;;0.52;100.00;102380.50;5253761;28;20138;-71
2021/12/22 10:56:32;;;;;;;16.55;9.82;;;;;;;0.72;100.00;102381.00;5250597;28;20024;-70
2021/12/22 10:59:06;;;;;;;15.15;9.50;;;;;;;0.66;100.00;102375.94;5253857;28;20020;-70
2021/12/22 11:01:56;;;;;;;13.70;9.95;;;;;;;0.68;100.00;102376.75;5254698;28;20029;-70
2021/12/22 11:04:32;;;;;;;15.75;9.32;;;;;;;0.76;100.00;102369.75;5253492;28;20470;-70
2021/12/22 11:07:22;;;;;;;14.02;9.32;;;;;;;0.91;100.00;102366.00;5247037;28;20032;-70
2021/12/22 11:09:54;;;;;;;19.70;9.52;;;;;;;0.84;100.00;102360.13;5254479;28;20036;-70
2021/12/22 11:12:38;;;;;;;16.35;9.38;;;;;;;1.01;100.00;102362.34;5253136;28;20159;-70
2021/12/22 11:15:25;;;;;;;13.07;9.57;;;;;;;1.05;100.00;102363.97;5254063;28;20595;-69
2021/12/22 11:17:56;;;;;;;14.57;8.98;;;;;;;0.99;100.00;102358.13;5254720;28;20025;-70
2021/12/22 11:20:27;;;;;;;14.75;8.50;;;;;;;1.03;100.00;102355.44;5253647;28;20383;-70
2021/12/22 11:23:04;;;;;;;16.30;9.70;;;;;;;1.10;100.00;102357.00;5254674;28;20029;-69
2021/12/22 11:25:37;;;;;;;17.00;8.88;;;;;;;1.16;100.00;102356.00;5254032;28;20013;-69
2021/12/22 11:28:08;;;;;;;20.92;10.35;;;;;;;1.21;100.00;102360.22;5255532;28;20669;-69
2021/12/22 11:30:40;;;;;;;13.35;8.23;;;;;;;1.28;100.00;102353.16;5253405;28;20032;-69
2021/12/22 11:33:11;;;;;;;18.83;8.95;;;;;;;1.31;100.00;102340.19;5251325;28;20028;-69
2021/12/22 11:35:43;;;;;;;12.63;8.45;;;;;;;1.39;100.00;102347.78;5253813;28;20502;-69
2021/12/22 11:38:14;;;;;;;14.68;8.55;;;;;;;1.40;100.00;102344.28;5248883;28;20056;-69
2021/12/22 11:40:54;;;;;;;13.45;7.85;;;;;;;1.40;100.00;102339.13;5250375;28;20398;-70
2021/12/22 11:43:26;;;;;;;13.90;8.05;;;;;;;1.48;100.00;102338.97;5250782;28;20025;-70
2021/12/22 11:45:57;;;;;;;11.38;7.53;;;;;;;1.46;100.00;102332.09;5252056;28;20028;-69
2021/12/22 11:48:29;;;;;;;14.50;7.88;;;;;;;1.53;100.00;102334.56;5251092;28;20027;-69
2021/12/22 11:51:01;;;;;;;13.20;8.48;;;;;;;1.52;100.00;102327.69;5251873;28;20040;-70